createdAt,value
2019-04-14T00:00:31.576Z,32.6
2019-04-14T00:02:33.839Z,34.2
2019-04-14T00:04:35.596Z,32.4
2019-04-14T00:06:37.638Z,36.4
2019-04-14T00:08:39.574Z,35.6
2019-04-14T00:10:42.241Z,35.1
2019-04-14T00:12:44.916Z,29.1
2019-04-14T00:14:47.065Z,33.5
2019-04-14T00:16:49.096Z,34
2019-04-14T00:18:51.355Z,32.4
2019-04-14T00:20:53.528Z,26.6
2019-04-14T00:22:55.630Z,32.8
2019-04-14T00:24:57.575Z,32.1
2019-04-14T00:26:59.621Z,30.3
2019-04-14T00:29:00.949Z,31.4
2019-04-14T00:31:02.427Z,28
2019-04-14T00:33:04.259Z,31
2019-04-14T00:35:06.161Z,29.9
2019-04-14T00:37:07.888Z,31.4
2019-04-14T00:39:09.656Z,30.7
2019-04-14T00:41:11.695Z,29.7
2019-04-14T00:43:13.580Z,31.6
2019-04-14T00:45:15.546Z,32.2
2019-04-14T00:47:18.065Z,30.2
2019-04-14T00:49:20.094Z,32
2019-04-14T00:51:22.167Z,29.7
2019-04-14T00:53:23.585Z,31.5
2019-04-14T00:55:25.074Z,29.2
2019-04-14T00:57:26.957Z,30.7
2019-04-14T00:59:29.116Z,33.1
2019-04-14T01:01:30.926Z,29.5
2019-04-14T01:03:33.109Z,30.7
2019-04-14T01:05:36.468Z,29.6
2019-04-14T01:07:39.230Z,33.2
2019-04-14T01:09:41.293Z,29.5
2019-04-14T01:11:42.691Z,30.4
2019-04-14T01:13:44.113Z,29.6
2019-04-14T01:16:00.406Z,29.6
2019-04-14T01:18:05.855Z,30.9
2019-04-14T01:20:08.017Z,29.2
2019-04-14T01:22:09.597Z,31.3
2019-04-14T01:24:12.118Z,28
2019-04-14T01:26:13.966Z,26.3
2019-04-14T01:28:15.921Z,29.2
2019-04-14T01:30:17.702Z,31
2019-04-14T01:32:19.789Z,29.2
2019-04-14T01:34:21.808Z,30.2
2019-04-14T01:36:23.618Z,28.4
2019-04-14T01:38:25.619Z,27.6
2019-04-14T01:40:27.165Z,27.5
2019-04-14T01:42:29.048Z,29.1
2019-04-14T01:44:30.799Z,31
2019-04-14T01:46:35.486Z,29.4
2019-04-14T01:48:37.103Z,29.3
2019-04-14T01:50:38.888Z,29.5
2019-04-14T01:52:40.690Z,26.7
2019-04-14T01:58:12.304Z,27.3
2019-04-14T02:00:14.212Z,28.9
2019-04-14T02:02:16.375Z,31.3
2019-04-14T02:04:18.209Z,29
2019-04-14T02:06:20.257Z,27.5
2019-04-14T02:08:22.113Z,27.3
2019-04-14T02:10:24.008Z,25.5
2019-04-14T02:12:25.715Z,25.6
2019-04-14T02:14:27.870Z,28.4
2019-04-14T02:16:40.073Z,26.9
2019-04-14T02:18:43.230Z,27.1
2019-04-14T02:20:44.846Z,27.8
2019-04-14T02:22:46.463Z,31.4
2019-04-14T02:24:48.258Z,28.1
2019-04-14T02:26:50.372Z,26.7
2019-04-14T02:28:52.912Z,26.8
2019-04-14T02:31:24.176Z,26.5
2019-04-14T02:34:33.407Z,29.4
2019-04-14T02:42:06.577Z,26
2019-04-14T02:48:02.130Z,27.7
2019-04-14T02:51:12.178Z,29.2
2019-04-14T02:57:51.775Z,28.8
2019-04-14T03:00:57.964Z,28.6
2019-04-14T03:03:55.769Z,27.5
2019-04-14T03:09:46.485Z,26.9
2019-04-14T03:15:06.758Z,28.5
2019-04-14T03:26:24.744Z,28.1
2019-04-14T03:29:26.495Z,26.5
2019-04-14T03:33:47.732Z,28.1
2019-04-14T03:37:49.820Z,26.9
2019-04-14T03:40:58.238Z,27.4
2019-04-14T03:46:16.913Z,26.9
2019-04-14T03:49:36.677Z,27
2019-04-14T03:52:37.343Z,27.9
2019-04-14T03:55:24.751Z,27
2019-04-14T03:57:32.655Z,25.6
2019-04-14T03:59:34.675Z,23.9
2019-04-14T04:01:36.874Z,25.2
2019-04-14T04:03:39.278Z,26.2
2019-04-14T04:05:41.421Z,24.5
2019-04-14T04:07:43.277Z,25
2019-04-14T04:09:45.525Z,24.2
2019-04-14T04:11:47.687Z,25
2019-04-14T04:13:49.980Z,25.7
2019-04-14T04:15:52.112Z,26.1
2019-04-14T04:17:53.937Z,25.8
2019-04-14T04:19:55.694Z,26.5
2019-04-14T04:21:57.443Z,25.1
2019-04-14T04:23:59.750Z,23.9
2019-04-14T04:26:01.966Z,24.4
2019-04-14T04:28:03.856Z,25.4
2019-04-14T04:30:06.111Z,25.5
2019-04-14T04:32:07.897Z,27.6
2019-04-14T04:34:09.926Z,28.2
2019-04-14T04:36:11.843Z,25.3
2019-04-14T04:38:13.898Z,29.2
2019-04-14T04:40:15.808Z,26.3
2019-04-14T04:42:17.761Z,29.1
2019-04-14T04:44:20.250Z,26.4
2019-04-14T04:46:22.144Z,29.2
2019-04-14T04:48:24.284Z,28.6
2019-04-14T04:50:26.107Z,27.6
2019-04-14T04:52:28.192Z,25.2
2019-04-14T04:54:30.198Z,24.5
2019-04-14T04:56:31.903Z,24.4
2019-04-14T04:58:33.208Z,26.6
2019-04-14T05:00:35.392Z,24.4
2019-04-14T05:02:37.524Z,23.1
2019-04-14T05:04:39.498Z,19.9
2019-04-14T05:06:41.793Z,24.3
2019-04-14T05:08:43.582Z,22.8
2019-04-14T05:10:45.777Z,23.3
2019-04-14T05:12:48.077Z,21.3
2019-04-14T05:14:50.219Z,23.3
2019-04-14T05:16:52.914Z,24.5
2019-04-14T05:18:55.281Z,21.9
2019-04-14T05:20:57.525Z,21.5
2019-04-14T05:22:59.434Z,22.9
2019-04-14T05:25:01.639Z,21.2
2019-04-14T05:27:03.700Z,22.8
2019-04-14T05:29:05.764Z,22.4
2019-04-14T05:31:07.729Z,22.4
2019-04-14T05:33:09.680Z,22.1
2019-04-14T05:35:12.055Z,21.9
2019-04-14T05:37:13.974Z,22.8
2019-04-14T05:39:15.723Z,20.9
2019-04-14T05:41:18.059Z,23.5
2019-04-14T05:43:38.311Z,21.5
2019-04-14T05:45:39.786Z,22.2
2019-04-14T05:47:41.549Z,19.5
2019-04-14T05:49:51.250Z,23.1
2019-04-14T05:51:54.504Z,24.8
2019-04-14T05:53:56.758Z,22.4
2019-04-14T05:55:59.351Z,22
2019-04-14T05:58:01.555Z,26.4
2019-04-14T06:00:03.872Z,22.7
2019-04-14T06:02:05.250Z,22.4
2019-04-14T06:04:07.225Z,25.1
2019-04-14T06:06:08.583Z,21.4
2019-04-14T06:08:09.903Z,21.8
2019-04-14T06:10:11.226Z,21.5
2019-04-14T06:12:12.651Z,22.7
2019-04-14T06:14:14.104Z,20.3
2019-04-14T06:16:15.456Z,21.7
2019-04-14T06:18:16.870Z,21.1
2019-04-14T06:20:18.221Z,21.4
2019-04-14T06:22:19.630Z,21.3
2019-04-14T06:24:21.159Z,21.8
2019-04-14T06:26:22.579Z,20.6
2019-04-14T06:28:23.909Z,21.5
2019-04-14T06:30:25.332Z,22.4
2019-04-14T06:32:26.749Z,21.6
2019-04-14T06:34:28.079Z,24.6
2019-04-14T06:36:29.499Z,22.1
2019-04-14T06:38:30.827Z,20.3
2019-04-14T06:40:32.247Z,21.4
2019-04-14T06:42:33.677Z,21.5
2019-04-14T06:44:35.099Z,22.7
2019-04-14T06:46:36.528Z,24.3
2019-04-14T06:48:37.951Z,21.6
2019-04-14T06:50:39.370Z,24.7
2019-04-14T06:52:40.733Z,21.5
2019-04-14T06:54:42.155Z,22.7
2019-04-14T06:56:43.492Z,22.8
2019-04-14T06:58:44.910Z,21.1
2019-04-14T07:00:46.332Z,22
2019-04-14T07:02:48.191Z,22.1
2019-04-14T07:04:49.569Z,21.8
2019-04-14T07:06:51.612Z,22.5
2019-04-14T07:08:53.024Z,23.3
2019-04-14T07:10:54.441Z,23.3
2019-04-14T07:12:55.858Z,21.6
2019-04-14T07:14:57.193Z,20.5
2019-04-14T07:16:58.621Z,22.8
2019-04-14T07:18:59.980Z,21.6
2019-04-14T07:21:01.404Z,21.1
2019-04-14T07:23:02.747Z,20
2019-04-14T07:25:04.168Z,22.5
2019-04-14T07:27:05.593Z,23.7
2019-04-14T07:29:07.021Z,22.2
2019-04-14T07:31:08.440Z,22
2019-04-14T07:33:09.867Z,19.2
2019-04-14T07:35:11.285Z,23.4
2019-04-14T07:37:12.704Z,20.4
2019-04-14T07:39:14.118Z,19.4
2019-04-14T07:41:15.467Z,22.6
2019-04-14T07:43:16.889Z,23.2
2019-04-14T07:45:18.314Z,24
2019-04-14T07:47:19.639Z,23.9
2019-04-14T07:49:21.028Z,23.2
2019-04-14T07:51:22.474Z,20.8
2019-04-14T07:53:23.878Z,20.7
2019-04-14T07:55:25.303Z,18.5
2019-04-14T07:57:26.730Z,20.9
2019-04-14T07:59:28.122Z,20.8
2019-04-14T08:01:29.499Z,18.2
2019-04-14T08:03:30.931Z,20.3
2019-04-14T08:05:32.311Z,18
2019-04-14T08:07:33.727Z,18.5
2019-04-14T08:09:35.118Z,17.7
2019-04-14T08:11:36.508Z,18.4
2019-04-14T08:13:37.923Z,16.4
2019-04-14T08:15:39.205Z,18.9
2019-04-14T08:17:42.222Z,17.3
2019-04-14T08:19:44.839Z,17.7
2019-04-14T08:21:46.271Z,17.8
2019-04-14T08:23:47.664Z,18.2
2019-04-14T08:25:49.064Z,17.2
2019-04-14T08:27:50.541Z,19
2019-04-14T08:29:51.922Z,17.7
2019-04-14T08:31:53.302Z,18.9
2019-04-14T08:33:54.693Z,19.3
2019-04-14T08:35:56.021Z,18.4
2019-04-14T08:37:57.370Z,16.9
2019-04-14T08:39:58.801Z,18.6
2019-04-14T08:42:00.154Z,19.3
2019-04-14T08:44:01.517Z,17.1
2019-04-14T08:46:03.021Z,17.4
2019-04-14T08:48:04.377Z,17
2019-04-14T08:50:05.722Z,15
2019-04-14T08:52:07.135Z,16.6
2019-04-14T08:54:08.587Z,16.1
2019-04-14T08:56:09.943Z,15.6
2019-04-14T08:58:11.226Z,11.6
2019-04-14T09:00:12.636Z,16.8
2019-04-14T09:02:14.058Z,17.3
2019-04-14T09:04:15.382Z,16.2
2019-04-14T09:06:16.807Z,16.9
2019-04-14T09:08:18.067Z,18.9
2019-04-14T09:10:19.492Z,18.2
2019-04-14T09:12:20.863Z,21.5
2019-04-14T09:14:22.287Z,12.9
2019-04-14T09:16:23.656Z,17.5
2019-04-14T09:18:25.075Z,18.3
2019-04-14T09:20:26.421Z,16
2019-04-14T09:22:27.829Z,15.4
2019-04-14T09:24:29.256Z,16.2
2019-04-14T09:26:30.680Z,22.1
2019-04-14T09:28:32.170Z,21.9
2019-04-14T09:30:33.540Z,18.8
2019-04-14T09:32:34.883Z,20
2019-04-14T09:34:36.312Z,19.2
2019-04-14T09:36:37.770Z,16.5
2019-04-14T09:38:39.172Z,20.9
2019-04-14T09:40:40.603Z,15.4
2019-04-14T09:42:41.971Z,13.3
2019-04-14T09:44:43.408Z,22.6
2019-04-14T09:46:44.834Z,19.5
2019-04-14T09:48:46.173Z,17.9
2019-04-14T09:50:47.648Z,19
2019-04-14T09:52:49.047Z,23.7
2019-04-14T09:54:50.459Z,21.5
2019-04-14T09:56:51.943Z,24
2019-04-14T09:58:53.318Z,24.2
2019-04-14T10:00:54.652Z,22.4
2019-04-14T10:02:56.069Z,21.9
2019-04-14T10:04:57.518Z,22.8
2019-04-14T10:06:58.932Z,21.9
2019-04-14T10:09:00.341Z,22.6
2019-04-14T10:11:01.749Z,21.6
2019-04-14T10:13:03.170Z,22.9
2019-04-14T10:15:04.534Z,22
2019-04-14T10:17:05.966Z,22.6
2019-04-14T10:19:07.387Z,25.9
2019-04-14T10:21:17.965Z,14.5
2019-04-14T10:23:19.429Z,21.2
2019-04-14T10:25:20.890Z,21
2019-04-14T10:27:22.290Z,16.4
2019-04-14T10:29:23.556Z,15.6
2019-04-14T10:31:24.980Z,23.9
2019-04-14T10:33:26.272Z,13.6
2019-04-14T10:35:27.592Z,19.3
2019-04-14T10:37:29.018Z,17.6
2019-04-14T10:39:30.396Z,18.7
2019-04-14T10:41:31.823Z,18.5
2019-04-14T10:43:33.158Z,19.3
2019-04-14T10:45:34.515Z,8.2
2019-04-14T10:47:35.895Z,14
2019-04-14T10:49:37.312Z,18.9
2019-04-14T10:51:38.674Z,15.1
2019-04-14T10:53:40.107Z,17.7
2019-04-14T10:55:41.536Z,13.3
2019-04-14T10:57:42.876Z,19.8
2019-04-14T10:59:44.253Z,20.8
2019-04-14T11:01:45.692Z,19.1
2019-04-14T11:03:47.068Z,19.3
2019-04-14T11:05:48.495Z,21.5
2019-04-14T11:07:49.904Z,17.6
2019-04-14T11:09:54.030Z,19.4
2019-04-14T11:11:55.466Z,19.2
2019-04-14T11:13:56.857Z,17
2019-04-14T11:15:58.290Z,19.4
2019-04-14T11:17:59.707Z,17.1
2019-04-14T11:20:01.140Z,18.2
2019-04-14T11:22:02.575Z,16.7
2019-04-14T11:24:04.005Z,14.3
2019-04-14T11:26:05.434Z,15.6
2019-04-14T11:28:06.776Z,16.8
2019-04-14T11:30:08.220Z,14.2
2019-04-14T11:32:09.651Z,15.3
2019-04-14T11:34:11.067Z,13.9
2019-04-14T11:36:12.403Z,13.8
2019-04-14T11:38:13.829Z,13.2
2019-04-14T11:40:15.238Z,13.6
2019-04-14T11:42:16.549Z,12.7
2019-04-14T11:44:17.899Z,12.7
2019-04-14T11:46:19.323Z,13.2
2019-04-14T11:48:20.767Z,12.5
2019-04-14T11:50:22.196Z,14
2019-04-14T11:52:23.617Z,15.3
2019-04-14T11:54:24.986Z,13.3
2019-04-14T11:56:26.409Z,14
2019-04-14T11:58:29.524Z,12.2
2019-04-14T12:00:30.883Z,13.2
2019-04-14T12:02:32.273Z,14.5
2019-04-14T12:04:33.668Z,13.8
2019-04-14T12:06:35.085Z,12.8
2019-04-14T12:08:36.457Z,12
2019-04-14T12:10:37.745Z,13.1
2019-04-14T12:12:39.084Z,12.9
2019-04-14T12:14:40.489Z,13.3
2019-04-14T12:16:41.888Z,12.3
2019-04-14T12:18:43.309Z,14.8
2019-04-14T12:20:44.748Z,11.8
2019-04-14T12:22:46.182Z,11.5
2019-04-14T12:24:47.615Z,10.1
2019-04-14T12:26:48.978Z,10.6
2019-04-14T12:28:51.645Z,11.2
2019-04-14T12:30:53.358Z,11.8
2019-04-14T12:32:54.658Z,12.4
2019-04-14T12:34:56.085Z,11.1
2019-04-14T12:36:57.463Z,11.3
2019-04-14T12:38:58.887Z,11.5
2019-04-14T12:41:02.605Z,10.9
2019-04-14T12:43:04.452Z,11.7
2019-04-14T12:45:05.877Z,11.1
2019-04-14T12:47:07.213Z,10.1
2019-04-14T12:49:08.601Z,11.6
2019-04-14T12:51:09.901Z,8.3
2019-04-14T12:53:11.247Z,11.7
2019-04-14T12:55:12.615Z,10.8
2019-04-14T12:57:14.033Z,13.5
2019-04-14T12:59:15.464Z,11.6
2019-04-14T13:01:16.786Z,11.1
2019-04-14T13:03:18.102Z,12.2
2019-04-14T13:05:19.506Z,10.6
2019-04-14T13:07:20.907Z,13.4
2019-04-14T13:09:22.333Z,11.6
2019-04-14T13:11:23.742Z,12.2
2019-04-14T13:13:25.173Z,10.7
2019-04-14T13:15:26.573Z,12.8
2019-04-14T13:17:27.911Z,12.7
2019-04-14T13:19:29.339Z,12.4
2019-04-14T13:21:30.775Z,9.5
2019-04-14T13:23:32.206Z,11.6
2019-04-14T13:25:33.610Z,14.1
2019-04-14T13:27:34.906Z,13.6
2019-04-14T13:29:36.340Z,12.3
2019-04-14T13:31:37.773Z,13.1
2019-04-14T13:33:39.207Z,12.7
2019-04-14T13:35:40.645Z,13.6
2019-04-14T13:37:42.132Z,11.8
2019-04-14T13:39:43.405Z,12.8
2019-04-14T13:41:44.705Z,13.8
2019-04-14T13:43:46.133Z,15.2
2019-04-14T13:45:47.560Z,13.3
2019-04-14T13:47:48.926Z,15.9
2019-04-14T13:49:50.270Z,14.7
2019-04-14T13:51:51.779Z,14.3
2019-04-14T13:53:53.127Z,13.6
2019-04-14T13:55:54.563Z,13.4
2019-04-14T13:57:55.997Z,14.7
2019-04-14T13:59:57.341Z,16.2
2019-04-14T14:01:58.762Z,17.1
2019-04-14T14:04:00.198Z,16.5
2019-04-14T14:06:01.609Z,14.8
2019-04-14T14:08:03.040Z,14.9
2019-04-14T14:10:04.476Z,14.4
2019-04-14T14:12:05.904Z,15.2
2019-04-14T14:14:07.270Z,14.2
2019-04-14T14:16:08.633Z,13.8
2019-04-14T14:18:10.066Z,15.6
2019-04-14T14:20:11.488Z,14.6
2019-04-14T14:22:12.851Z,14.4
2019-04-14T14:24:14.104Z,14.8
2019-04-14T14:26:15.537Z,14.9
2019-04-14T14:28:16.970Z,14.2
2019-04-14T14:30:18.315Z,15.7
2019-04-14T14:32:19.687Z,14.7
2019-04-14T14:34:21.121Z,14.3
2019-04-14T14:36:22.500Z,14
2019-04-14T14:38:23.809Z,15.2
2019-04-14T14:40:25.215Z,13.6
2019-04-14T14:42:26.542Z,14.1
2019-04-14T14:44:27.913Z,13.3
2019-04-14T14:46:29.342Z,14.1
2019-04-14T14:48:30.777Z,15
2019-04-14T14:50:32.200Z,14.9
2019-04-14T14:52:33.623Z,15
2019-04-14T14:54:35.052Z,15.1
2019-04-14T14:56:36.387Z,16.1
2019-04-14T14:58:37.791Z,17.2
2019-04-14T15:00:39.225Z,15.2
2019-04-14T15:02:40.669Z,17.1
2019-04-14T15:04:41.996Z,19.1
2019-04-14T15:06:43.327Z,19.7
2019-04-14T15:08:44.760Z,18.7
2019-04-14T15:10:46.200Z,18
2019-04-14T15:12:47.627Z,15.7
2019-04-14T15:14:49.059Z,15.6
2019-04-14T15:16:50.495Z,16.7
2019-04-14T15:18:51.921Z,15.5
2019-04-14T15:20:53.274Z,14.8
2019-04-14T15:22:54.643Z,16
2019-04-14T15:24:55.998Z,16.6
2019-04-14T15:26:57.433Z,15.5
2019-04-14T15:28:58.862Z,14.8
2019-04-14T15:31:00.284Z,15.6
2019-04-14T15:33:01.721Z,14.6
2019-04-14T15:35:03.106Z,18.4
2019-04-14T15:37:04.511Z,14.9
2019-04-14T15:39:05.937Z,15.9
2019-04-14T15:41:07.364Z,13.7
2019-04-14T15:43:08.722Z,13.2
2019-04-14T15:45:10.098Z,11.7
2019-04-14T15:47:11.420Z,12.7
2019-04-14T15:49:12.831Z,11.7
2019-04-14T15:51:14.161Z,12.8
2019-04-14T15:53:15.514Z,11
2019-04-14T15:55:16.865Z,10.7
2019-04-14T15:57:18.296Z,10.7
2019-04-14T15:59:19.725Z,9.7
2019-04-14T16:01:21.149Z,11.5
2019-04-14T16:03:22.481Z,9.2
2019-04-14T16:05:23.852Z,10.7
2019-04-14T16:07:25.287Z,9.8
2019-04-14T16:09:26.606Z,10.2
2019-04-14T16:11:28.013Z,7.2
2019-04-14T16:13:29.358Z,8.2
2019-04-14T16:15:30.780Z,7.8
2019-04-14T16:17:32.112Z,8.5
2019-04-14T16:19:33.539Z,7.9
2019-04-14T16:21:34.790Z,8.2
2019-04-14T16:23:36.219Z,8.5
2019-04-14T16:25:37.557Z,7.7
2019-04-14T16:27:38.977Z,7.9
2019-04-14T16:29:40.342Z,9
2019-04-14T16:31:41.772Z,8.5
2019-04-14T16:33:43.179Z,7.7
2019-04-14T16:35:44.590Z,7.7
2019-04-14T16:37:46.015Z,7.1
2019-04-14T16:39:47.442Z,6.7
2019-04-14T16:41:48.786Z,6.2
2019-04-14T16:43:50.212Z,6.5
2019-04-14T16:45:51.576Z,5.9
2019-04-14T16:47:52.981Z,6.1
2019-04-14T16:49:54.315Z,5.8
2019-04-14T16:51:55.676Z,6.3
2019-04-14T16:54:03.509Z,5.9
2019-04-14T16:56:04.973Z,5.4
2019-04-14T16:58:06.290Z,7
2019-04-14T17:00:07.574Z,6.6
2019-04-14T17:02:11.476Z,6.2
2019-04-14T17:04:12.934Z,7.1
2019-04-14T17:06:14.366Z,6.6
2019-04-14T17:08:15.789Z,6.8
2019-04-14T17:10:17.212Z,6.4
2019-04-14T17:12:18.634Z,5.8
2019-04-14T17:14:20.061Z,5.6
2019-04-14T17:16:21.493Z,6.3
2019-04-14T17:18:22.833Z,5.7
2019-04-14T17:20:24.173Z,5.3
2019-04-14T17:22:25.575Z,5.6
2019-04-14T17:24:26.936Z,5.5
2019-04-14T17:26:28.372Z,6
2019-04-14T17:28:29.786Z,5.9
2019-04-14T17:30:31.116Z,5.6
2019-04-14T17:32:32.562Z,6.1
2019-04-14T17:34:33.970Z,5.8
2019-04-14T17:36:35.399Z,5.7
2019-04-14T17:38:36.830Z,5.2
2019-04-14T17:40:38.170Z,5.8
2019-04-14T17:42:39.594Z,5.4
2019-04-14T17:44:40.923Z,4.9
2019-04-14T17:46:42.206Z,5.3
2019-04-14T17:48:43.637Z,5.1
2019-04-14T17:50:45.063Z,6
2019-04-14T17:52:46.473Z,5.2
2019-04-14T17:54:47.905Z,5.4
2019-04-14T17:56:49.249Z,5.6
2019-04-14T17:58:50.692Z,5.5
2019-04-14T18:00:52.103Z,4.5
2019-04-14T18:02:53.533Z,4.8
2019-04-14T18:04:54.959Z,4.8
2019-04-14T18:06:56.376Z,5.1
2019-04-14T18:08:57.800Z,5.5
2019-04-14T18:10:59.228Z,5.8
2019-04-14T18:13:00.490Z,6.2
2019-04-14T18:15:01.924Z,5.5
2019-04-14T18:17:03.248Z,10
2019-04-14T18:19:04.579Z,7.6
2019-04-14T18:21:06.009Z,6.5
2019-04-14T18:23:07.341Z,5.7
2019-04-14T18:25:08.707Z,6.3
2019-04-14T18:27:10.135Z,5.4
2019-04-14T18:29:11.384Z,5.5
2019-04-14T18:31:12.815Z,6
2019-04-14T18:33:14.154Z,6.6
2019-04-14T18:35:15.490Z,5.3
2019-04-14T18:37:16.862Z,6
2019-04-14T18:39:18.144Z,5.6
2019-04-14T18:41:19.487Z,6.6
2019-04-14T18:43:20.816Z,5.9
2019-04-14T18:45:22.236Z,6.1
2019-04-14T18:47:23.568Z,5.6
2019-04-14T18:49:24.998Z,5.9
2019-04-14T18:51:26.428Z,5.6
2019-04-14T19:01:11.947Z,6.8
2019-04-14T19:03:13.325Z,7
2019-04-14T19:05:14.668Z,7.1
2019-04-14T19:07:16.102Z,7
2019-04-14T19:09:17.525Z,7.5
2019-04-14T19:11:18.957Z,7.8
2019-04-14T19:13:20.304Z,7.8
2019-04-14T19:15:21.737Z,7.4
2019-04-14T19:17:23.149Z,8.9
2019-04-14T19:19:24.565Z,8.4
2019-04-14T19:21:25.939Z,8.7
2019-04-14T19:23:27.398Z,8.5
2019-04-14T19:25:28.721Z,8.6
2019-04-14T19:27:30.216Z,9
2019-04-14T19:29:31.680Z,9.6
2019-04-14T19:31:33.111Z,8.6
2019-04-14T19:33:34.466Z,9.2
2019-04-14T19:35:35.896Z,9.3
2019-04-14T19:37:37.326Z,8.5
2019-04-14T19:39:38.828Z,9.1
2019-04-14T19:41:40.238Z,9.4
2019-04-14T19:43:41.639Z,9.5
2019-04-14T19:45:43.065Z,8.9
2019-04-14T19:47:44.330Z,9.4
2019-04-14T19:49:45.718Z,10
2019-04-14T19:51:47.008Z,9.9
2019-04-14T19:53:48.341Z,10
2019-04-14T19:55:49.675Z,11.7
2019-04-14T19:57:51.018Z,11.5
2019-04-14T19:59:52.446Z,10.9
2019-04-14T20:01:53.875Z,11.4
2019-04-14T20:03:55.153Z,13.1
2019-04-14T20:05:56.586Z,11.8
2019-04-14T20:07:58.015Z,12.4
2019-04-14T20:09:59.334Z,12.9
2019-04-14T20:12:00.779Z,12.7
2019-04-14T20:14:02.200Z,13.5
2019-04-14T20:16:03.543Z,11.8
2019-04-14T20:18:04.963Z,12.5
2019-04-14T20:20:06.387Z,13.2
2019-04-14T20:22:07.749Z,13.3
2019-04-14T20:24:09.178Z,13.7
2019-04-14T20:26:10.510Z,12.8
2019-04-14T20:28:11.950Z,12.1
2019-04-14T20:30:13.360Z,12.9
2019-04-14T20:32:14.796Z,12.6
2019-04-14T20:34:16.223Z,13.2
2019-04-14T20:36:17.651Z,12.8
2019-04-14T20:38:19.081Z,12.8
2019-04-14T20:40:20.410Z,12.3
2019-04-14T20:42:21.856Z,13.1
2019-04-14T20:44:23.276Z,13.2
2019-04-14T20:46:24.705Z,13.4
2019-04-14T20:48:26.103Z,13.6
2019-04-14T20:50:27.566Z,12.8
2019-04-14T20:52:28.941Z,12.9
2019-04-14T20:54:30.377Z,13.2
2019-04-14T20:56:31.752Z,12.7
2019-04-14T20:58:33.156Z,14
2019-04-14T21:00:34.486Z,14.9
2019-04-14T21:02:35.738Z,16.4
2019-04-14T21:04:37.163Z,12.6
2019-04-14T21:06:38.504Z,14
2019-04-14T21:08:39.932Z,13.7
2019-04-14T21:10:41.282Z,13.8
2019-04-14T21:12:42.705Z,13.5
2019-04-14T21:14:44.038Z,13.2
2019-04-14T21:16:45.466Z,12.3
2019-04-14T21:18:46.778Z,12.5
2019-04-14T21:20:48.197Z,13.3
2019-04-14T21:22:49.668Z,12.3
2019-04-14T21:24:51.044Z,12.9
2019-04-14T21:26:52.472Z,11.6
2019-04-14T21:28:53.895Z,12.1
2019-04-14T21:30:55.323Z,12
2019-04-14T21:32:56.752Z,12.3
2019-04-14T21:34:58.184Z,11.8
2019-04-14T21:36:59.617Z,11.8
2019-04-14T21:39:00.964Z,12.1
2019-04-14T21:41:02.234Z,13.2
2019-04-14T21:43:03.664Z,14.1
2019-04-14T21:45:05.105Z,13.1
2019-04-14T21:47:06.530Z,12.4
2019-04-14T21:49:07.945Z,11.4
2019-04-14T21:51:09.346Z,11.7
2019-04-14T21:53:10.773Z,12
2019-04-14T21:55:12.123Z,11.8
2019-04-14T21:57:13.559Z,11.8
2019-04-14T21:59:14.886Z,13.1
2019-04-14T22:01:16.309Z,12.4
2019-04-14T22:03:17.749Z,11.6
2019-04-14T22:05:19.076Z,11.6
2019-04-14T22:07:20.440Z,12.3
2019-04-14T22:09:21.867Z,13.1
2019-04-14T22:11:23.210Z,13
2019-04-14T22:13:24.565Z,12.5
2019-04-14T22:15:25.990Z,12.8
2019-04-14T22:17:27.423Z,12.4
2019-04-14T22:19:28.778Z,12.6
2019-04-14T22:21:30.113Z,12.8
2019-04-14T22:23:31.543Z,13.9
2019-04-14T22:25:32.962Z,13
2019-04-14T22:27:34.304Z,13.2
2019-04-14T22:29:35.631Z,13.2
2019-04-14T22:31:37.062Z,11.8
2019-04-14T22:33:38.488Z,12.3
2019-04-14T22:35:39.836Z,13.1
2019-04-14T22:37:41.261Z,13.4
2019-04-14T22:39:42.694Z,13.3
2019-04-14T22:41:44.034Z,13.5
2019-04-14T22:43:45.466Z,14.5
2019-04-14T22:45:46.893Z,13.7
2019-04-14T22:47:48.274Z,14.6
2019-04-14T22:49:49.701Z,13.5
2019-04-14T22:51:51.109Z,13.2
2019-04-14T22:53:52.538Z,15.6
2019-04-14T22:55:53.966Z,13.4
2019-04-14T22:57:55.300Z,15
2019-04-14T22:59:56.723Z,14.9
2019-04-14T23:01:58.061Z,15.3
2019-04-14T23:06:00.862Z,14.2
2019-04-14T23:08:02.320Z,17.4
2019-04-14T23:10:03.690Z,16.2
2019-04-14T23:12:05.111Z,16.5
2019-04-14T23:14:06.531Z,14.1
2019-04-14T23:16:07.959Z,16
2019-04-14T23:18:09.623Z,14.9
2019-04-14T23:20:10.921Z,14.3
2019-04-14T23:22:12.340Z,15.1
2019-04-14T23:24:13.758Z,14.6
2019-04-14T23:26:15.191Z,14.6
2019-04-14T23:28:16.612Z,14.5
2019-04-14T23:30:18.000Z,13.9
2019-04-14T23:32:19.418Z,15.2
2019-04-14T23:34:20.753Z,17.6
2019-04-14T23:36:22.182Z,17.5
2019-04-14T23:38:23.617Z,16.1
2019-04-14T23:40:25.033Z,17.9
2019-04-14T23:42:26.365Z,16.7
2019-04-14T23:44:27.798Z,20.3
2019-04-14T23:46:29.223Z,17.5
2019-04-14T23:48:30.561Z,16.3
2019-04-14T23:50:31.990Z,16.6
2019-04-14T23:52:33.408Z,16.9
2019-04-14T23:54:34.838Z,16.8
2019-04-14T23:56:36.275Z,16.5
2019-04-14T23:58:37.771Z,17.9
